createdAt,value
2022-08-07T00:04:03.748Z,100897.16
2022-08-07T00:18:53.951Z,100908.56
2022-08-07T00:33:47.813Z,100904.16
2022-08-07T00:48:35.345Z,100895.22
2022-08-07T01:03:56.206Z,100895.44
2022-08-07T01:18:16.666Z,100903.34
2022-08-07T01:33:07.136Z,100905.83
2022-08-07T01:48:21.380Z,100903.31
2022-08-07T02:03:19.302Z,100898.09
2022-08-07T02:17:49.441Z,100881.00
2022-08-07T02:33:00.195Z,100865.09
2022-08-07T02:47:45.121Z,100855.50
2022-08-07T03:02:21.681Z,100840.89
2022-08-07T03:17:13.309Z,100842.36
2022-08-07T03:32:04.528Z,100860.28
2022-08-07T03:47:10.837Z,100857.97
2022-08-07T04:01:47.816Z,100868.91
2022-08-07T04:16:39.127Z,100860.59
2022-08-07T04:31:38.971Z,100874.88
2022-08-07T04:47:04.980Z,100890.96
2022-08-07T05:01:59.666Z,100903.82
2022-08-07T05:16:56.944Z,100903.44
2022-08-07T05:31:52.864Z,100908.77
2022-08-07T05:46:40.201Z,100916.73
2022-08-07T06:01:35.766Z,100924.55
2022-08-07T06:16:22.393Z,100933.95
2022-08-07T06:31:14.689Z,100941.52
2022-08-07T06:46:06.572Z,100936.30
2022-08-07T07:00:58.536Z,100931.72
2022-08-07T07:15:51.746Z,100908.23
2022-08-07T07:30:43.535Z,100900.73
2022-08-07T07:46:40.245Z,100909.58
2022-08-07T08:00:34.271Z,100904.92
2022-08-07T08:15:23.188Z,100888.54
2022-08-07T08:30:14.280Z,100884.31
2022-08-07T08:45:26.862Z,100874.66
2022-08-07T09:00:19.126Z,100864.02
2022-08-07T09:16:21.901Z,100855.38
2022-08-07T09:30:20.664Z,100843.94
2022-08-07T09:47:24.789Z,100844.92
2022-08-07T10:01:03.669Z,100811.69
2022-08-07T10:32:07.523Z,100771.33
2022-08-07T10:47:15.720Z,100765.23
2022-08-07T11:02:33.129Z,100754.46
2022-08-07T11:17:11.209Z,100737.31
2022-08-07T11:32:06.434Z,100715.92
2022-08-07T11:47:18.096Z,100716.27
2022-08-07T12:02:20.603Z,100696.14
2022-08-07T12:17:19.886Z,100696.55
2022-08-07T12:32:12.062Z,100681.09
2022-08-07T13:18:00.220Z,100619.48
2022-08-07T13:34:30.113Z,100627.27
2022-08-07T13:48:27.534Z,100609.89
2022-08-07T14:03:29.917Z,100591.47
2022-08-07T14:18:28.463Z,100578.00
2022-08-07T14:33:23.343Z,100565.20
2022-08-07T14:48:19.665Z,100551.44
2022-08-07T15:03:18.608Z,100543.16
2022-08-07T15:18:02.489Z,100543.27
2022-08-07T15:33:04.056Z,100525.88
2022-08-07T15:48:00.999Z,100519.53
2022-08-07T16:02:46.585Z,100516.34
2022-08-07T16:18:02.393Z,100503.22
2022-08-07T16:34:02.105Z,100501.07
2022-08-07T16:48:09.086Z,100503.22
2022-08-07T18:04:24.577Z,100527.77
2022-08-07T18:21:09.767Z,100528.09
2022-08-07T18:34:37.649Z,100539.17
2022-08-07T18:50:32.404Z,100563.17
2022-08-07T19:04:39.778Z,100579.87
2022-08-07T19:19:41.596Z,100596.62
2022-08-07T19:34:38.691Z,100605.77
2022-08-07T19:49:56.574Z,100617.95
2022-08-07T20:04:31.424Z,100626.63
2022-08-07T20:19:10.058Z,100649.20
2022-08-07T20:34:01.398Z,100639.57
2022-08-07T21:04:18.681Z,100632.50
2022-08-07T21:18:46.468Z,100623.98
2022-08-07T21:33:43.535Z,100629.08
2022-08-07T21:48:42.544Z,100628.92
2022-08-07T22:03:38.161Z,100636.49
2022-08-07T22:18:43.968Z,100638.83
2022-08-07T22:33:56.958Z,100652.50
2022-08-07T22:49:09.588Z,100642.45
2022-08-07T23:04:29.886Z,100659.86
2022-08-07T23:19:51.506Z,100664.17
2022-08-07T23:34:44.343Z,100672.06
2022-08-07T23:49:52.865Z,100667.26
